Time;durP1;ratioP1;P1;durP2;ratioP2;P2;SDS_P1;SDS_P2;PMS_P1;PMS_P2;Temp;Humidity;BMP_temperature;BMP_pressure;BME280_temperature;BME280_humidity;BME280_pressure;Samples;Min_cycle;Max_cycle;Signal;HPM_P1;HPM_P2
2023/09/20 00:02:29;;;;;;;8.85;1.88;;;18.70;74.40;;;;;;9161458;19;20391;-69
2023/09/20 00:05:39;;;;;;;10.00;1.90;;;18.70;74.40;;;;;;9162015;19;20023;-69
2023/09/20 00:08:44;;;;;;;7.82;2.50;;;18.70;74.40;;;;;;9160369;19;20355;-67
2023/09/20 00:11:54;;;;;;;16.63;1.92;;;18.70;74.50;;;;;;9159905;19;20279;-67
2023/09/20 00:15:00;;;;;;;4.60;1.77;;;18.70;74.50;;;;;;9158304;19;20480;-69
2023/09/20 00:18:08;;;;;;;5.28;1.70;;;18.70;74.50;;;;;;9160541;19;20011;-68
2023/09/20 00:21:15;;;;;;;9.35;1.98;;;18.70;74.50;;;;;;9167963;19;20027;-68
2023/09/20 00:24:23;;;;;;;5.93;1.55;;;18.70;74.50;;;;;;9168200;19;20045;-69
2023/09/20 00:27:33;;;;;;;8.27;3.00;;;18.70;74.50;;;;;;9167000;19;20014;-68
2023/09/20 00:30:40;;;;;;;14.20;4.53;;;18.80;74.50;;;;;;9170321;19;20028;-68
2023/09/20 00:33:46;;;;;;;10.32;2.00;;;18.70;74.40;;;;;;9170408;19;20123;-68
2023/09/20 00:36:54;;;;;;;9.45;2.15;;;18.70;74.40;;;;;;9168903;19;20021;-66
2023/09/20 00:39:59;;;;;;;9.15;2.13;;;18.80;74.40;;;;;;9168585;19;20086;-70
2023/09/20 00:43:10;;;;;;;13.23;2.47;;;18.80;74.40;;;;;;9171273;19;20026;-66
2023/09/20 00:46:16;;;;;;;9.10;2.03;;;18.70;74.40;;;;;;9170759;19;20029;-68
2023/09/20 00:49:24;;;;;;;6.90;2.00;;;18.80;74.40;;;;;;9168499;19;20095;-67
2023/09/20 00:52:30;;;;;;;10.02;2.17;;;18.80;74.40;;;;;;9168102;19;20018;-69
2023/09/20 00:55:39;;;;;;;7.30;2.15;;;18.70;74.30;;;;;;9171212;19;20587;-67
2023/09/20 00:58:49;;;;;;;7.85;1.98;;;18.70;74.30;;;;;;9180574;19;20057;-69
2023/09/20 01:01:57;;;;;;;7.07;1.60;;;18.70;74.30;;;;;;9184587;19;20006;-67
2023/09/20 01:05:05;;;;;;;6.95;2.13;;;18.70;74.40;;;;;;9175066;19;20047;-67
2023/09/20 01:08:15;;;;;;;7.35;2.33;;;18.70;74.40;;;;;;9169937;19;20394;-68
2023/09/20 01:11:21;;;;;;;8.32;2.10;;;18.70;74.40;;;;;;9168526;19;20038;-68
2023/09/20 01:14:32;;;;;;;6.68;1.90;;;18.70;74.40;;;;;;9167223;19;20353;-68
2023/09/20 01:17:46;;;;;;;8.65;1.67;;;18.70;74.40;;;;;;9170358;19;20089;-68
2023/09/20 01:20:54;;;;;;;6.72;2.10;;;18.70;74.40;;;;;;9170153;19;20026;-70
2023/09/20 01:24:02;;;;;;;9.38;1.95;;;18.70;74.40;;;;;;9168018;19;20026;-68
2023/09/20 01:27:10;;;;;;;10.52;2.00;;;18.70;74.60;;;;;;9168903;19;20018;-67
2023/09/20 01:30:16;;;;;;;6.18;2.60;;;18.70;74.50;;;;;;9170112;19;20086;-68
2023/09/20 01:33:24;;;;;;;9.40;2.10;;;18.70;74.40;;;;;;9163848;19;20109;-67
2023/09/20 01:36:30;;;;;;;13.50;2.40;;;18.70;74.50;;;;;;9167491;19;20393;-69
2023/09/20 01:39:40;;;;;;;10.63;2.88;;;18.70;74.40;;;;;;9167216;19;20010;-67
2023/09/20 01:42:46;;;;;;;4.97;1.90;;;18.70;74.40;;;;;;9166342;19;20364;-67
2023/09/20 01:45:53;;;;;;;10.18;2.20;;;18.70;74.40;;;;;;9168139;19;20102;-68
2023/09/20 01:48:59;;;;;;;6.45;2.10;;;18.70;74.50;;;;;;9163697;19;20546;-67
2023/09/20 01:52:08;;;;;;;6.97;1.77;;;18.70;74.50;;;;;;9164249;19;20026;-67
2023/09/20 01:55:18;;;;;;;8.02;2.05;;;18.70;74.50;;;;;;9166828;19;20284;-67
2023/09/20 01:58:26;;;;;;;9.77;1.85;;;18.70;74.50;;;;;;9165002;19;20018;-68
2023/09/20 02:01:32;;;;;;;6.45;2.22;;;18.70;74.50;;;;;;9165289;19;20137;-67
2023/09/20 02:04:39;;;;;;;9.77;2.05;;;18.60;74.50;;;;;;9162410;19;20015;-68
2023/09/20 02:07:45;;;;;;;6.75;1.77;;;18.60;74.50;;;;;;9164100;19;20019;-69
2023/09/20 02:10:55;;;;;;;10.23;2.35;;;18.60;74.50;;;;;;9165813;19;20014;-68
2023/09/20 02:14:00;;;;;;;9.85;2.20;;;18.60;74.60;;;;;;9165924;19;20306;-68
2023/09/20 02:17:08;;;;;;;16.55;2.38;;;18.60;74.60;;;;;;9160418;19;20015;-68
2023/09/20 02:20:19;;;;;;;7.40;2.00;;;18.60;74.60;;;;;;9165636;19;20147;-67
2023/09/20 02:23:27;;;;;;;7.57;2.20;;;18.60;74.60;;;;;;9165917;19;20018;-68
2023/09/20 02:26:37;;;;;;;9.73;2.13;;;18.60;74.60;;;;;;9163850;19;20476;-68
2023/09/20 02:29:44;;;;;;;8.60;2.20;;;18.60;74.60;;;;;;9161949;19;20723;-66
2023/09/20 02:32:55;;;;;;;6.57;2.20;;;18.50;74.60;;;;;;9164291;19;20534;-67
2023/09/20 02:36:03;;;;;;;17.63;2.38;;;18.50;74.60;;;;;;9163683;19;20018;-68
2023/09/20 02:39:12;;;;;;;11.10;2.58;;;18.50;74.60;;;;;;9163000;19;20082;-68
2023/09/20 02:42:23;;;;;;;11.55;3.00;;;18.50;74.70;;;;;;9163805;19;20762;-68
2023/09/20 02:45:29;;;;;;;11.70;2.05;;;18.50;74.70;;;;;;9161831;19;20534;-68
2023/09/20 02:48:37;;;;;;;5.65;1.88;;;18.50;74.70;;;;;;9163313;19;20019;-68
2023/09/20 02:51:42;;;;;;;9.55;2.17;;;18.40;74.70;;;;;;9162824;19;20011;-68
2023/09/20 02:54:51;;;;;;;6.70;2.45;;;18.40;74.70;;;;;;9164162;19;20014;-69
2023/09/20 02:57:59;;;;;;;13.45;2.63;;;18.40;74.70;;;;;;9162855;19;20022;-68
2023/09/20 03:01:10;;;;;;;6.40;1.77;;;18.40;74.80;;;;;;9161070;19;20018;-67
2023/09/20 03:04:16;;;;;;;8.13;1.85;;;18.40;74.80;;;;;;9162221;19;20015;-68
2023/09/20 03:07:24;;;;;;;6.90;2.10;;;18.30;74.80;;;;;;9163325;19;20052;-69
2023/09/20 03:10:31;;;;;;;16.05;2.03;;;18.30;74.80;;;;;;9161589;19;20046;-68
2023/09/20 03:13:41;;;;;;;10.93;2.30;;;18.20;74.80;;;;;;9162435;19;20011;-68
2023/09/20 03:16:46;;;;;;;8.05;1.80;;;18.20;74.70;;;;;;9157456;19;20049;-67
2023/09/20 03:19:55;;;;;;;17.10;2.25;;;18.20;74.80;;;;;;9161635;19;20015;-68
2023/09/20 03:23:02;;;;;;;7.68;1.95;;;18.20;74.80;;;;;;9161667;19;20039;-67
2023/09/20 03:26:16;;;;;;;9.07;2.88;;;18.20;74.90;;;;;;9161521;19;20465;-69
2023/09/20 03:29:26;;;;;;;7.20;1.65;;;18.10;74.90;;;;;;9160086;19;20480;-68
2023/09/20 03:32:34;;;;;;;7.07;2.65;;;18.10;75.00;;;;;;9161091;19;20011;-68
2023/09/20 03:35:39;;;;;;;9.85;2.15;;;18.00;75.10;;;;;;9161394;19;20417;-69
2023/09/20 03:38:47;;;;;;;9.95;2.08;;;18.00;75.10;;;;;;9161291;19;20511;-68
2023/09/20 03:41:54;;;;;;;6.03;1.77;;;17.90;75.10;;;;;;9160934;19;20511;-69
2023/09/20 03:45:06;;;;;;;9.68;2.10;;;17.90;75.20;;;;;;9161025;19;20495;-68
2023/09/20 03:48:11;;;;;;;7.30;1.88;;;17.90;75.30;;;;;;9160948;19;20014;-69
2023/09/20 03:51:19;;;;;;;8.98;2.05;;;17.90;75.30;;;;;;9162524;19;20010;-69
2023/09/20 03:54:25;;;;;;;15.88;2.70;;;17.80;75.30;;;;;;9160645;19;20021;-68
2023/09/20 03:57:33;;;;;;;6.28;2.03;;;17.90;75.40;;;;;;9167171;19;20010;-69
2023/09/20 04:00:44;;;;;;;4.80;2.00;;;17.80;75.40;;;;;;9170433;19;20030;-68
2023/09/20 04:03:53;;;;;;;13.77;2.50;;;17.80;75.50;;;;;;9170516;19;20018;-67
2023/09/20 04:06:59;;;;;;;9.52;1.70;;;17.80;75.50;;;;;;9171651;19;20753;-69
2023/09/20 04:10:07;;;;;;;7.80;1.65;;;17.80;75.60;;;;;;9169788;19;20108;-68
2023/09/20 04:13:13;;;;;;;9.43;1.60;;;17.80;75.70;;;;;;9171460;19;20022;-67
2023/09/20 04:16:24;;;;;;;11.10;2.20;;;17.80;75.70;;;;;;9166975;19;20024;-67
2023/09/20 04:19:30;;;;;;;13.77;2.83;;;17.80;75.70;;;;;;9170638;19;20018;-68
2023/09/20 04:22:41;;;;;;;7.20;1.88;;;17.80;75.80;;;;;;9169612;19;20010;-67
2023/09/20 04:25:46;;;;;;;5.35;1.98;;;17.80;76.40;;;;;;9167995;19;20025;-69
2023/09/20 04:28:55;;;;;;;7.93;2.80;;;17.80;75.80;;;;;;9167971;19;20014;-67
2023/09/20 04:32:04;;;;;;;5.88;1.90;;;17.80;75.80;;;;;;9166749;19;20035;-68
2023/09/20 04:35:12;;;;;;;11.00;1.95;;;17.80;75.90;;;;;;9167692;19;20025;-68
2023/09/20 04:38:17;;;;;;;8.55;1.92;;;17.80;75.90;;;;;;9167114;19;20019;-67
2023/09/20 04:41:25;;;;;;;15.93;3.17;;;17.80;75.90;;;;;;9167203;19;20307;-68
2023/09/20 04:44:30;;;;;;;7.30;2.17;;;17.80;75.80;;;;;;9167936;19;20421;-67
2023/09/20 04:47:41;;;;;;;7.00;2.33;;;17.80;75.90;;;;;;9168318;19;20273;-68
2023/09/20 04:50:51;;;;;;;7.50;1.98;;;17.70;75.90;;;;;;9165895;19;20704;-68
2023/09/20 04:53:58;;;;;;;9.73;2.40;;;17.70;75.90;;;;;;9166534;19;20010;-68
2023/09/20 04:57:04;;;;;;;9.77;3.42;;;17.70;75.90;;;;;;9166803;19;20030;-66
2023/09/20 05:00:16;;;;;;;6.10;2.00;;;17.70;75.90;;;;;;9167259;19;20010;-69
2023/09/20 05:03:24;;;;;;;8.73;2.33;;;17.70;76.60;;;;;;9167262;19;20032;-69
2023/09/20 05:06:32;;;;;;;5.53;2.05;;;17.60;76.10;;;;;;9167727;19;20563;-69
2023/09/20 05:09:39;;;;;;;6.22;1.73;;;17.60;76.10;;;;;;9165044;19;20120;-69
2023/09/20 05:12:48;;;;;;;9.07;2.45;;;17.60;76.20;;;;;;9166980;19;20476;-68
2023/09/20 05:15:55;;;;;;;12.90;2.75;;;17.60;76.30;;;;;;9161952;19;20030;-68
2023/09/20 05:19:05;;;;;;;11.65;2.72;;;17.60;76.30;;;;;;9166445;19;20040;-69
2023/09/20 05:22:12;;;;;;;7.00;1.80;;;17.60;76.40;;;;;;9165762;19;20027;-68
2023/09/20 05:25:20;;;;;;;7.28;2.58;;;17.60;76.40;;;;;;9165589;19;20018;-69
2023/09/20 05:28:25;;;;;;;8.48;2.40;;;17.50;76.40;;;;;;9165637;19;20050;-69
2023/09/20 05:31:33;;;;;;;7.30;2.10;;;17.50;76.50;;;;;;9165562;19;20025;-70
2023/09/20 05:34:42;;;;;;;7.05;2.65;;;17.50;76.50;;;;;;9166453;19;20022;-68
2023/09/20 05:37:50;;;;;;;5.07;2.00;;;17.50;76.60;;;;;;9166245;19;20022;-68
2023/09/20 05:40:55;;;;;;;5.03;2.20;;;17.50;76.60;;;;;;9165670;19;20019;-69
2023/09/20 05:44:04;;;;;;;8.05;1.98;;;17.50;76.70;;;;;;9167295;19;20025;-69
2023/09/20 05:47:10;;;;;;;7.10;2.28;;;17.50;76.80;;;;;;9167503;19;20649;-69
2023/09/20 05:50:27;;;;;;;9.80;3.00;;;17.50;76.80;;;;;;9162664;19;20019;-69
2023/09/20 05:53:33;;;;;;;5.82;1.90;;;17.40;76.80;;;;;;9165395;19;20011;-69
2023/09/20 05:56:41;;;;;;;9.40;2.90;;;17.40;76.80;;;;;;9166164;19;20029;-67
2023/09/20 05:59:46;;;;;;;14.18;2.20;;;17.40;76.90;;;;;;9164217;19;20039;-69
2023/09/20 06:02:53;;;;;;;9.73;2.65;;;17.50;77.00;;;;;;9163007;19;20022;-68
2023/09/20 06:06:03;;;;;;;6.38;2.50;;;17.40;76.90;;;;;;9165162;19;20021;-69
2023/09/20 06:09:11;;;;;;;6.70;2.42;;;17.40;77.10;;;;;;9163517;19;20479;-68
2023/09/20 06:12:16;;;;;;;5.60;2.08;;;17.50;77.10;;;;;;9157806;19;20659;-69
2023/09/20 06:15:24;;;;;;;11.27;2.50;;;17.40;77.10;;;;;;9159629;19;20014;-70
2023/09/20 06:18:29;;;;;;;12.18;3.00;;;17.50;77.30;;;;;;9161732;19;20052;-69
2023/09/20 06:21:44;;;;;;;10.63;2.63;;;17.50;77.30;;;;;;9173884;19;20018;-86
2023/09/20 06:25:06;;;;;;;;;;;;;;;;;;;;;
2023/09/20 06:28:24;;;;;;;14.00;2.72;;;18.40;79.10;;;;;;9161120;19;20014;-68
2023/09/20 06:31:30;;;;;;;5.10;2.13;;;18.60;78.20;;;;;;9160885;19;20027;-67
2023/09/20 06:34:40;;;;;;;7.75;2.55;;;17.60;77.40;;;;;;9162624;19;20006;-70
2023/09/20 06:38:07;;;;;;;8.70;2.28;;;17.70;77.50;;;;;;9159047;19;20031;-69
2023/09/20 06:41:15;;;;;;;6.40;2.10;;;17.70;77.60;;;;;;9163842;19;20021;-71
2023/09/20 06:44:20;;;;;;;11.45;2.28;;;17.80;77.50;;;;;;9165141;19;20022;-66
2023/09/20 06:47:28;;;;;;;9.40;2.60;;;17.80;77.50;;;;;;9161319;19;20689;-71
2023/09/20 06:50:35;;;;;;;11.27;2.50;;;17.90;77.60;;;;;;9163639;19;20040;-68
2023/09/20 06:53:46;;;;;;;7.63;2.55;;;17.90;78.20;;;;;;9163306;19;20472;-69
2023/09/20 06:56:51;;;;;;;8.07;3.63;;;18.00;77.60;;;;;;9162035;19;20058;-69
2023/09/20 06:59:59;;;;;;;9.68;2.63;;;18.10;77.60;;;;;;9165013;19;20014;-71
2023/09/20 07:03:05;;;;;;;9.88;2.08;;;18.10;77.50;;;;;;9163530;19;20029;-70
2023/09/20 07:06:13;;;;;;;13.73;2.47;;;18.10;77.50;;;;;;9163983;19;20698;-70
2023/09/20 07:09:22;;;;;;;7.97;2.20;;;18.20;77.40;;;;;;9164198;19;20022;-69
2023/09/20 07:12:33;;;;;;;14.30;2.38;;;18.20;77.40;;;;;;9160415;19;20025;-69
2023/09/20 07:15:40;;;;;;;8.25;2.25;;;18.20;77.40;;;;;;9181814;19;20486;-70
2023/09/20 07:18:48;;;;;;;11.52;2.20;;;18.30;77.50;;;;;;9185026;19;20025;-66
2023/09/20 07:21:53;;;;;;;6.43;2.00;;;18.30;77.50;;;;;;9185554;19;20023;-66
2023/09/20 07:25:05;;;;;;;3.78;2.20;;;18.40;77.50;;;;;;9169783;19;20011;-65
2023/09/20 07:28:10;;;;;;;15.88;2.63;;;18.40;77.50;;;;;;9166524;19;20020;-66
2023/09/20 07:31:21;;;;;;;10.00;2.10;;;18.40;77.50;;;;;;9169971;19;20017;-66
2023/09/20 07:34:26;;;;;;;8.02;2.65;;;18.50;77.50;;;;;;9176915;19;21625;-67
2023/09/20 07:37:33;;;;;;;8.02;1.92;;;18.60;77.50;;;;;;9175460;19;20847;-66
2023/09/20 07:40:43;;;;;;;7.38;2.30;;;18.60;77.50;;;;;;9175948;19;20053;-65
2023/09/20 07:43:51;;;;;;;15.50;2.30;;;18.60;77.60;;;;;;9170659;19;20021;-66
2023/09/20 07:46:57;;;;;;;9.05;2.20;;;18.70;77.60;;;;;;9172419;19;20015;-65
2023/09/20 07:50:06;;;;;;;6.63;2.13;;;18.80;77.60;;;;;;9172897;19;20117;-66
2023/09/20 07:53:15;;;;;;;4.43;1.70;;;18.80;77.60;;;;;;9168509;19;20031;-66
2023/09/20 07:56:25;;;;;;;8.65;2.00;;;18.90;77.50;;;;;;9168622;19;20760;-65
2023/09/20 07:59:31;;;;;;;6.90;2.13;;;19.00;77.50;;;;;;9170653;19;20418;-68
2023/09/20 08:02:39;;;;;;;6.45;1.95;;;19.00;77.40;;;;;;9171599;19;20011;-67
2023/09/20 08:05:45;;;;;;;6.10;2.05;;;19.10;77.50;;;;;;9168920;19;20014;-67
2023/09/20 08:08:53;;;;;;;8.15;1.95;;;19.10;77.40;;;;;;9170148;19;20469;-69
2023/09/20 08:12:01;;;;;;;12.50;2.35;;;19.20;77.50;;;;;;9168965;19;20510;-67
2023/09/20 08:15:12;;;;;;;9.52;1.60;;;19.20;77.20;;;;;;9167615;19;20356;-68
2023/09/20 08:21:38;;;;;;;5.50;2.38;;;19.40;77.10;;;;;;9167884;19;20025;-67
2023/09/20 09:01:44;;;;;;;3.65;1.95;;;20.10;76.30;;;;;;9167103;19;20022;-67
2023/09/20 09:04:54;;;;;;;5.60;1.90;;;20.20;76.10;;;;;;9165971;19;20031;-67
2023/09/20 09:08:05;;;;;;;5.88;2.22;;;20.20;76.10;;;;;;9165799;19;20027;-68
2023/09/20 09:11:11;;;;;;;4.97;2.10;;;20.20;76.00;;;;;;9164522;19;20030;-67
2023/09/20 09:14:19;;;;;;;8.15;1.98;;;20.30;76.10;;;;;;9166961;19;20011;-68
2023/09/20 09:17:27;;;;;;;8.48;2.28;;;20.30;76.00;;;;;;9162308;19;20052;-67
2023/09/20 09:20:36;;;;;;;5.75;1.92;;;20.30;75.90;;;;;;9165462;19;20018;-68
2023/09/20 09:23:45;;;;;;;4.35;2.13;;;20.30;76.00;;;;;;9167270;19;20037;-67
2023/09/20 09:27:08;;;;;;;9.45;1.90;;;20.30;76.00;;;;;;9166870;19;20021;-69
2023/09/20 09:30:15;;;;;;;4.72;2.28;;;20.30;75.90;;;;;;9163115;19;20031;-67
2023/09/20 09:33:27;;;;;;;7.88;2.15;;;20.30;75.80;;;;;;9165247;19;20021;-67
2023/09/20 09:36:32;;;;;;;6.75;1.98;;;20.30;75.80;;;;;;9164205;19;20005;-68
2023/09/20 09:39:41;;;;;;;5.80;2.30;;;20.30;75.80;;;;;;9167974;19;20807;-68
2023/09/20 09:42:48;;;;;;;6.60;2.10;;;20.30;75.80;;;;;;9167526;19;20385;-68
2023/09/20 09:45:57;;;;;;;5.63;2.10;;;20.40;75.80;;;;;;9166195;19;20029;-67
2023/09/20 09:49:05;;;;;;;4.30;1.90;;;20.40;75.80;;;;;;9168000;19;20029;-68
2023/09/20 09:52:13;;;;;;;7.43;2.17;;;20.40;75.70;;;;;;9166299;19;20018;-68
2023/09/20 09:55:20;;;;;;;4.65;1.75;;;20.40;75.70;;;;;;9165818;19;20533;-68
2023/09/20 09:58:28;;;;;;;3.75;1.73;;;20.50;75.70;;;;;;9163053;19;20441;-68
2023/09/20 10:01:36;;;;;;;13.30;2.30;;;20.50;75.60;;;;;;9164927;19;20021;-68
2023/09/20 10:04:55;;;;;;;4.80;2.75;;;20.50;75.50;;;;;;9162864;19;20022;-68
2023/09/20 10:08:01;;;;;;;6.03;2.38;;;20.50;75.40;;;;;;9163986;19;20665;-66
2023/09/20 10:11:09;;;;;;;8.38;2.17;;;20.50;75.40;;;;;;9161746;19;20022;-66
2023/09/20 10:14:18;;;;;;;9.90;2.53;;;20.50;75.40;;;;;;9161446;19;20141;-66
2023/09/20 10:17:25;;;;;;;7.45;2.13;;;20.50;75.40;;;;;;9160298;19;20492;-69
2023/09/20 10:21:04;;;;;;;7.60;2.22;;;20.50;75.30;;;;;;9162323;19;20052;-67
2023/09/20 10:24:17;;;;;;;13.98;2.30;;;20.50;75.30;;;;;;9162204;19;20014;-68
2023/09/20 10:27:23;;;;;;;6.25;2.30;;;20.50;75.30;;;;;;9162570;19;20384;-68
2023/09/20 10:30:34;;;;;;;3.75;1.83;;;20.50;75.40;;;;;;9160214;19;20021;-68
2023/09/20 10:33:45;;;;;;;5.68;1.70;;;20.60;75.50;;;;;;9160025;19;20502;-68
2023/09/20 10:36:57;;;;;;;4.70;1.98;;;20.60;75.40;;;;;;9159365;19;20038;-70
2023/09/20 10:40:06;;;;;;;6.93;2.63;;;20.70;75.50;;;;;;9163824;19;20469;-69
2023/09/20 10:43:13;;;;;;;9.48;2.60;;;20.70;75.50;;;;;;9166617;19;20025;-68
2023/09/20 10:46:22;;;;;;;8.60;2.38;;;20.80;75.40;;;;;;9164056;19;20032;-69
2023/09/20 10:49:47;;;;;;;4.00;2.00;;;20.90;75.50;;;;;;9160535;19;20436;-70
2023/09/20 10:52:59;;;;;;;9.18;2.30;;;21.00;80.60;;;;;;9160176;19;20369;-69
2023/09/20 10:56:08;;;;;;;5.43;2.40;;;21.10;75.30;;;;;;9162671;19;20022;-69
2023/09/20 10:59:17;;;;;;;6.30;2.13;;;21.10;75.30;;;;;;9160154;19;20471;-69
2023/09/20 11:02:27;;;;;;;5.20;2.22;;;21.20;75.30;;;;;;9164598;19;20554;-70
2023/09/20 11:05:32;;;;;;;9.00;2.72;;;21.40;77.90;;;;;;9162693;19;20017;-70
2023/09/20 11:08:43;;;;;;;7.03;2.55;;;21.50;76.00;;;;;;9161061;19;20018;-70
2023/09/20 11:11:50;;;;;;;3.95;2.20;;;21.50;74.80;;;;;;9161050;19;20070;-71
2023/09/20 11:14:58;;;;;;;7.30;2.10;;;21.60;74.60;;;;;;9155625;19;20022;-70
2023/09/20 11:18:04;;;;;;;6.13;2.38;;;21.70;74.50;;;;;;9161239;19;20616;-70
2023/09/20 11:21:12;;;;;;;9.18;2.50;;;21.80;74.40;;;;;;9162651;19;20017;-69
2023/09/20 11:24:20;;;;;;;6.95;3.28;;;21.80;74.40;;;;;;9161390;19;20028;-69
2023/09/20 11:27:27;;;;;;;5.10;1.95;;;21.90;74.10;;;;;;9161066;19;20013;-69
2023/09/20 11:30:33;;;;;;;7.55;2.30;;;22.10;74.20;;;;;;9162627;19;20089;-69
2023/09/20 11:33:41;;;;;;;6.75;1.98;;;22.20;74.00;;;;;;9160174;19;21768;-69
2023/09/20 11:36:47;;;;;;;7.32;2.35;;;22.20;74.00;;;;;;9160104;19;20037;-69
2023/09/20 11:39:58;;;;;;;5.80;1.77;;;22.70;75.00;;;;;;9161493;19;20017;-68
2023/09/20 11:43:05;;;;;;;4.45;1.90;;;22.40;73.60;;;;;;9163541;19;20010;-67
2023/09/20 11:46:13;;;;;;;10.77;2.83;;;22.50;73.50;;;;;;9161381;19;20021;-67
2023/09/20 11:49:18;;;;;;;5.10;2.08;;;22.60;73.40;;;;;;9160425;19;20477;-69
2023/09/20 11:52:27;;;;;;;3.30;1.67;;;22.70;73.30;;;;;;9159743;19;20010;-68
2023/09/20 11:55:35;;;;;;;3.65;1.60;;;22.80;74.10;;;;;;9162028;19;21618;-68
2023/09/20 11:58:46;;;;;;;6.65;1.88;;;22.80;72.80;;;;;;9161702;19;20011;-70
2023/09/20 12:01:51;;;;;;;5.60;1.77;;;22.80;72.80;;;;;;9162116;19;20361;-69
2023/09/20 12:04:59;;;;;;;2.45;1.58;;;22.90;72.90;;;;;;9161466;19;20025;-68
2023/09/20 12:08:06;;;;;;;4.60;1.65;;;23.00;73.00;;;;;;9160009;19;20025;-69
2023/09/20 12:11:17;;;;;;;6.82;1.50;;;23.00;72.60;;;;;;9160361;19;20022;-69
2023/09/20 12:14:22;;;;;;;4.38;1.50;;;23.10;72.90;;;;;;9158270;19;20915;-69
2023/09/20 12:17:31;;;;;;;4.28;1.40;;;23.30;81.60;;;;;;9164652;19;20015;-69
2023/09/20 12:20:38;;;;;;;4.70;1.30;;;23.20;72.20;;;;;;9169686;19;20041;-67
2023/09/20 12:23:45;;;;;;;2.92;1.30;;;23.30;72.40;;;;;;9165525;19;20014;-69
2023/09/20 12:26:55;;;;;;;4.53;1.33;;;22.20;72.20;;;;;;9170700;19;20011;-67
2023/09/20 12:30:04;;;;;;;2.70;1.40;;;23.30;71.80;;;;;;9169903;19;20342;-68
2023/09/20 12:33:09;;;;;;;2.47;1.30;;;23.40;71.70;;;;;;9168109;19;20021;-67
2023/09/20 12:36:17;;;;;;;5.57;1.70;;;23.40;71.70;;;;;;9166975;19;20780;-67
2023/09/20 12:39:23;;;;;;;6.55;1.60;;;23.50;73.30;;;;;;9169372;19;20017;-69
2023/09/20 12:42:34;;;;;;;5.53;1.50;;;23.80;75.30;;;;;;9169186;19;20554;-68
2023/09/20 12:45:39;;;;;;;2.08;1.17;;;23.60;71.50;;;;;;9166709;19;20030;-68
2023/09/20 12:48:48;;;;;;;4.70;1.40;;;23.60;71.40;;;;;;9169530;19;20428;-68
2023/09/20 12:51:53;;;;;;;3.13;1.20;;;23.70;71.90;;;;;;9166391;19;20021;-68
2023/09/20 12:55:00;;;;;;;2.85;1.20;;;23.60;70.90;;;;;;9164359;19;20010;-68
2023/09/20 12:58:10;;;;;;;3.47;1.10;;;23.70;70.80;;;;;;9168533;19;20035;-69
2023/09/20 13:01:17;;;;;;;3.45;1.38;;;23.80;71.20;;;;;;9170026;19;20018;-68
2023/09/20 13:04:24;;;;;;;4.63;1.25;;;23.70;70.70;;;;;;9169584;19;20045;-69
2023/09/20 13:07:32;;;;;;;2.45;1.08;;;23.70;70.90;;;;;;9166910;19;20022;-69
2023/09/20 13:10:38;;;;;;;5.63;1.67;;;23.80;73.60;;;;;;9167130;19;20022;-70
2023/09/20 13:13:49;;;;;;;5.55;1.10;;;23.80;70.40;;;;;;9167812;19;20022;-69
2023/09/20 13:16:55;;;;;;;6.10;1.65;;;23.80;70.30;;;;;;9165504;19;20351;-68
2023/09/20 13:20:03;;;;;;;9.38;1.20;;;23.90;70.80;;;;;;9168281;19;20002;-68
2023/09/20 13:23:09;;;;;;;14.05;1.50;;;24.10;74.70;;;;;;9174933;19;20019;-70
2023/09/20 13:26:16;;;;;;;3.58;1.73;;;23.80;70.10;;;;;;9185889;19;20011;-67
2023/09/20 13:29:25;;;;;;;15.55;2.17;;;23.80;69.90;;;;;;9189704;19;20032;-70
2023/09/20 13:32:32;;;;;;;2.70;1.23;;;23.90;69.90;;;;;;9182467;19;20011;-66
2023/09/20 13:35:39;;;;;;;3.55;1.13;;;23.80;70.00;;;;;;9167088;19;20021;-68
2023/09/20 13:38:47;;;;;;;4.55;1.23;;;23.80;69.80;;;;;;9169138;19;20014;-67
2023/09/20 13:41:56;;;;;;;3.20;1.23;;;23.80;69.80;;;;;;9167323;19;20021;-66
2023/09/20 13:45:07;;;;;;;3.65;1.17;;;23.80;69.70;;;;;;9166086;19;20029;-68
2023/09/20 13:48:14;;;;;;;5.05;1.30;;;23.70;69.70;;;;;;9168521;19;20424;-68
2023/09/20 13:51:22;;;;;;;4.78;1.15;;;23.70;70.10;;;;;;9167746;19;20765;-67
2023/09/20 13:54:28;;;;;;;2.53;1.10;;;23.60;70.20;;;;;;9161050;19;20026;-69
2023/09/20 13:57:36;;;;;;;4.43;1.30;;;23.70;70.90;;;;;;9161338;19;20014;-65
2023/09/20 14:00:44;;;;;;;1.92;0.80;;;23.70;71.90;;;;;;9162337;19;20403;-65
2023/09/20 14:03:51;;;;;;;3.30;1.40;;;23.70;73.20;;;;;;9163002;19;20444;-66
2023/09/20 14:06:58;;;;;;;2.92;1.10;;;23.60;75.20;;;;;;9160518;19;20010;-65
2023/09/20 14:10:06;;;;;;;4.20;1.00;;;25.00;72.60;;;;;;9161711;19;20018;-66
2023/09/20 14:13:11;;;;;;;3.00;1.10;;;23.60;72.40;;;;;;9161298;19;20018;-66
2023/09/20 14:16:21;;;;;;;4.05;1.33;;;23.70;75.50;;;;;;9157371;19;20010;-66
2023/09/20 14:19:27;;;;;;;5.38;1.20;;;23.70;76.80;;;;;;9163507;19;20025;-67
2023/09/20 14:22:35;;;;;;;6.05;1.00;;;23.70;72.80;;;;;;9161503;19;20003;-66
2023/09/20 14:25:40;;;;;;;6.85;1.30;;;23.70;73.60;;;;;;9166365;19;20450;-66
2023/09/20 14:28:47;;;;;;;2.92;1.20;;;23.70;75.60;;;;;;9163430;19;20011;-67
2023/09/20 14:31:55;;;;;;;4.50;1.38;;;23.60;75.90;;;;;;9161843;19;20050;-66
2023/09/20 14:35:03;;;;;;;1.80;0.95;;;24.60;74.90;;;;;;9159340;19;20022;-69
2023/09/20 14:38:09;;;;;;;4.10;1.75;;;25.10;71.70;;;;;;9161142;19;20021;-65
2023/09/20 14:41:17;;;;;;;8.20;1.50;;;23.50;70.30;;;;;;9159789;19;20014;-66
2023/09/20 14:44:22;;;;;;;3.40;1.00;;;23.50;69.80;;;;;;9161999;19;20039;-66
2023/09/20 14:47:32;;;;;;;6.38;1.33;;;23.40;70.00;;;;;;9166143;19;20452;-64
2023/09/20 14:50:37;;;;;;;5.80;1.42;;;23.40;70.80;;;;;;9165334;19;20018;-66
2023/09/20 14:53:45;;;;;;;3.70;1.20;;;23.40;71.70;;;;;;9163195;19;20026;-66
2023/09/20 14:56:50;;;;;;;3.70;2.17;;;23.50;74.60;;;;;;9163679;19;20027;-67
2023/09/20 14:59:57;;;;;;;5.65;1.75;;;23.30;75.10;;;;;;9163550;19;20014;-67
2023/09/20 15:03:06;;;;;;;5.22;1.38;;;23.30;80.10;;;;;;9164266;19;20033;-67
2023/09/20 15:06:18;;;;;;;6.45;1.23;;;23.20;72.30;;;;;;9163098;19;20021;-67
2023/09/20 15:09:24;;;;;;;1.80;1.20;;;23.20;72.00;;;;;;9165394;19;20542;-67
2023/09/20 15:12:31;;;;;;;4.20;1.77;;;23.20;72.90;;;;;;9160396;19;20010;-68
2023/09/20 15:15:37;;;;;;;3.45;1.30;;;23.10;73.10;;;;;;9160324;19;20115;-66
2023/09/20 15:18:48;;;;;;;8.70;1.27;;;23.00;73.90;;;;;;9162313;19;20633;-70
2023/09/20 15:21:56;;;;;;;3.47;1.23;;;23.00;75.40;;;;;;9161974;19;20021;-67
2023/09/20 15:25:04;;;;;;;3.83;1.30;;;23.00;74.70;;;;;;9162986;19;21715;-68
2023/09/20 15:28:09;;;;;;;5.95;1.55;;;22.90;71.50;;;;;;9165822;19;20488;-70
2023/09/20 15:31:20;;;;;;;6.75;1.25;;;22.90;71.20;;;;;;9164537;19;20749;-65
2023/09/20 15:34:28;;;;;;;3.58;1.40;;;22.90;76.10;;;;;;9159112;19;20545;-67
2023/09/20 15:37:43;;;;;;;2.78;1.00;;;23.70;74.40;;;;;;9159300;19;20606;-67
2023/09/20 15:40:49;;;;;;;4.43;1.73;;;22.90;73.50;;;;;;9159759;19;20018;-68
2023/09/20 15:43:57;;;;;;;5.18;1.25;;;22.80;70.60;;;;;;9159869;19;20014;-70
2023/09/20 15:47:02;;;;;;;2.72;1.33;;;22.80;71.60;;;;;;9157545;19;20049;-67
2023/09/20 15:50:13;;;;;;;5.05;1.33;;;22.70;71.00;;;;;;9157721;19;20476;-69
2023/09/20 15:53:18;;;;;;;5.38;1.80;;;22.80;71.60;;;;;;9168959;19;20026;-68
2023/09/20 15:56:26;;;;;;;9.48;1.33;;;22.70;72.00;;;;;;9168910;19;20376;-68
2023/09/20 15:59:32;;;;;;;4.45;1.60;;;22.70;72.80;;;;;;9167166;19;20019;-65
2023/09/20 16:02:39;;;;;;;3.95;1.55;;;22.60;73.70;;;;;;9165243;19;20022;-67
2023/09/20 16:05:48;;;;;;;3.30;1.20;;;22.60;74.50;;;;;;9164392;19;20022;-66
2023/09/20 16:08:58;;;;;;;2.00;1.08;;;22.60;76.30;;;;;;9160763;19;20141;-66
2023/09/20 16:12:03;;;;;;;3.30;1.23;;;22.50;77.60;;;;;;9163049;19;20476;-66
2023/09/20 16:15:12;;;;;;;3.17;1.35;;;22.50;78.00;;;;;;9159973;19;20015;-66
2023/09/20 16:18:17;;;;;;;7.03;1.15;;;22.50;72.90;;;;;;9166349;19;20067;-65
2023/09/20 16:21:28;;;;;;;2.45;1.08;;;22.40;74.40;;;;;;9166516;19;20014;-66
2023/09/20 16:24:34;;;;;;;3.00;1.40;;;22.40;80.70;;;;;;9162823;19;20127;-65
2023/09/20 16:27:42;;;;;;;5.60;1.40;;;22.30;74.20;;;;;;9166074;19;20023;-65
2023/09/20 16:30:47;;;;;;;3.60;1.42;;;22.30;72.90;;;;;;9165390;19;20403;-67
2023/09/20 16:33:55;;;;;;;4.65;1.60;;;22.20;72.40;;;;;;9163537;19;20022;-67
2023/09/20 16:37:03;;;;;;;4.97;1.60;;;22.20;72.70;;;;;;9162499;19;20014;-66
2023/09/20 16:40:12;;;;;;;4.22;1.20;;;22.10;72.50;;;;;;9163583;19;20029;-66
2023/09/20 16:43:17;;;;;;;2.53;1.05;;;22.10;72.90;;;;;;9162592;19;20475;-66
2023/09/20 16:46:25;;;;;;;3.47;1.40;;;22.10;73.00;;;;;;9162500;19;20014;-67
2023/09/20 16:49:30;;;;;;;3.75;1.30;;;22.10;73.20;;;;;;9166382;19;20019;-66
2023/09/20 16:52:40;;;;;;;5.97;1.70;;;22.00;74.20;;;;;;9167022;19;20485;-67
2023/09/20 16:55:48;;;;;;;5.80;1.40;;;21.90;74.80;;;;;;9163745;19;20011;-68
2023/09/20 16:58:56;;;;;;;2.45;0.93;;;21.90;75.40;;;;;;9163733;19;20112;-67